createdAt,value
2023-08-25T00:01:57.216Z,21.00
2023-08-25T00:04:24.175Z,21.00
2023-08-25T00:06:51.004Z,21.00
2023-08-25T00:09:17.861Z,21.00
2023-08-25T00:11:44.745Z,20.90
2023-08-25T00:14:11.625Z,20.80
2023-08-25T00:16:38.489Z,20.80
2023-08-25T00:19:06.588Z,20.80
2023-08-25T00:21:33.479Z,20.80
2023-08-25T00:24:00.630Z,20.80
2023-08-25T00:26:27.529Z,20.70
2023-08-25T00:28:54.512Z,20.70
2023-08-25T00:31:21.445Z,20.70
2023-08-25T00:33:51.747Z,20.70
2023-08-25T00:36:18.850Z,20.70
2023-08-25T00:38:45.852Z,20.80
2023-08-25T00:41:12.716Z,20.60
2023-08-25T00:43:40.821Z,20.60
2023-08-25T00:46:09.422Z,20.60
2023-08-25T00:48:37.876Z,20.50
2023-08-25T00:51:07.111Z,20.50
2023-08-25T00:53:37.078Z,20.50
2023-08-25T00:56:04.889Z,20.40
2023-08-25T00:58:32.162Z,20.40
2023-08-25T01:01:04.427Z,20.40
2023-08-25T01:03:31.614Z,20.40
2023-08-25T01:05:59.327Z,20.40
2023-08-25T01:08:26.654Z,20.40
2023-08-25T01:11:15.601Z,20.50
2023-08-25T01:14:23.337Z,20.50
2023-08-25T01:17:02.440Z,20.50
2023-08-25T01:20:00.341Z,20.50
2023-08-25T01:22:47.177Z,20.50
2023-08-25T01:25:31.302Z,20.40
2023-08-25T01:28:04.964Z,20.30
2023-08-25T01:30:35.952Z,20.30
2023-08-25T01:33:05.534Z,20.30
2023-08-25T01:35:57.393Z,20.20
2023-08-25T01:38:44.372Z,20.30
2023-08-25T01:41:23.361Z,20.30
2023-08-25T01:43:54.636Z,20.20
2023-08-25T01:46:23.490Z,20.20
2023-08-25T01:48:54.691Z,20.30
2023-08-25T01:51:21.998Z,20.40
2023-08-25T01:53:55.204Z,20.40
2023-08-25T01:56:23.909Z,20.40
2023-08-25T01:58:52.168Z,20.40
2023-08-25T02:01:19.162Z,20.40
2023-08-25T02:03:46.193Z,20.40
2023-08-25T02:06:13.081Z,20.50
2023-08-25T02:08:43.405Z,20.60
2023-08-25T02:11:10.465Z,20.50
2023-08-25T02:13:37.433Z,20.50
2023-08-25T02:16:04.578Z,20.60
2023-08-25T02:18:31.679Z,20.60
2023-08-25T02:21:00.088Z,20.60
2023-08-25T02:23:27.062Z,20.60
2023-08-25T02:25:54.286Z,20.60
2023-08-25T02:28:21.931Z,20.50
2023-08-25T02:30:48.887Z,20.60
2023-08-25T02:33:17.762Z,20.60
2023-08-25T02:35:45.492Z,20.60
2023-08-25T02:38:12.790Z,20.60
2023-08-25T02:40:40.083Z,20.60
2023-08-25T02:43:08.814Z,20.60
2023-08-25T02:45:37.466Z,20.60
2023-08-25T02:48:05.412Z,20.60
2023-08-25T02:50:32.433Z,20.60
2023-08-25T02:52:59.331Z,20.60
2023-08-25T02:55:26.401Z,20.60
2023-08-25T02:57:54.107Z,20.60
2023-08-25T03:00:25.028Z,20.60
2023-08-25T03:02:53.281Z,20.70
2023-08-25T03:05:22.615Z,20.70
2023-08-25T03:07:54.547Z,20.70
2023-08-25T03:10:22.957Z,20.60
2023-08-25T03:12:50.919Z,20.60
2023-08-25T03:15:18.002Z,20.60
2023-08-25T03:17:45.071Z,20.60
2023-08-25T03:20:12.459Z,20.50
2023-08-25T03:22:39.579Z,20.60
2023-08-25T03:25:07.009Z,20.60
2023-08-25T03:27:35.799Z,20.60
2023-08-25T03:30:03.491Z,20.50
2023-08-25T03:32:31.599Z,20.50
2023-08-25T03:34:58.684Z,20.50
2023-08-25T03:37:26.485Z,20.50
2023-08-25T03:39:53.545Z,20.50
2023-08-25T03:42:21.057Z,20.50
2023-08-25T03:44:49.143Z,20.50
2023-08-25T03:47:16.093Z,20.60
2023-08-25T03:49:42.914Z,20.60
2023-08-25T03:52:10.082Z,20.60
2023-08-25T03:54:37.893Z,20.60
2023-08-25T03:57:07.842Z,20.60
2023-08-25T03:59:35.126Z,20.60
2023-08-25T04:02:04.787Z,20.70
2023-08-25T04:04:35.395Z,20.70
2023-08-25T04:07:02.964Z,20.70
2023-08-25T04:09:31.612Z,20.70
2023-08-25T04:11:58.553Z,20.70
2023-08-25T04:14:25.997Z,20.70
2023-08-25T04:16:53.641Z,20.60
2023-08-25T04:19:22.716Z,20.70
2023-08-25T04:21:51.141Z,20.60
2023-08-25T04:24:18.758Z,20.70
2023-08-25T04:26:46.083Z,20.70
2023-08-25T04:29:13.139Z,20.70
2023-08-25T04:31:41.058Z,20.80
2023-08-25T04:34:08.312Z,20.80
2023-08-25T04:36:37.776Z,20.80
2023-08-25T04:39:04.960Z,20.70
2023-08-25T04:41:32.273Z,20.80
2023-08-25T04:43:59.291Z,20.70
2023-08-25T04:46:29.763Z,20.80
2023-08-25T04:48:58.145Z,20.70
2023-08-25T04:51:25.456Z,20.70
2023-08-25T04:53:52.745Z,20.70
2023-08-25T04:56:20.077Z,20.80
2023-08-25T04:58:47.081Z,20.80
2023-08-25T05:01:15.306Z,20.80
2023-08-25T05:03:43.747Z,20.90
2023-08-25T05:06:10.951Z,20.90
2023-08-25T05:08:37.953Z,20.90
2023-08-25T05:11:05.096Z,20.90
2023-08-25T05:13:32.816Z,20.90
2023-08-25T05:15:59.959Z,20.90
2023-08-25T05:18:47.044Z,20.80
2023-08-25T05:21:16.408Z,20.90
2023-08-25T05:23:49.705Z,20.90
2023-08-25T05:26:17.466Z,20.80
2023-08-25T05:28:54.458Z,20.90
2023-08-25T05:31:21.456Z,20.90
2023-08-25T05:34:10.141Z,20.90
2023-08-25T05:36:47.696Z,20.90
2023-08-25T05:39:14.686Z,20.90
2023-08-25T05:41:41.761Z,20.90
2023-08-25T05:44:08.738Z,20.90
2023-08-25T05:46:35.766Z,21.00
2023-08-25T05:49:02.617Z,20.90
2023-08-25T05:51:29.932Z,21.00
2023-08-25T05:53:56.871Z,20.90
2023-08-25T05:56:25.933Z,20.90
2023-08-25T05:58:53.773Z,21.00
2023-08-25T06:01:21.465Z,21.00
2023-08-25T06:03:48.472Z,21.00
2023-08-25T06:06:15.566Z,21.00
2023-08-25T06:08:42.589Z,21.10
2023-08-25T06:11:09.621Z,21.10
2023-08-25T06:13:36.555Z,21.10
2023-08-25T06:16:04.224Z,21.10
2023-08-25T06:18:31.260Z,21.10
2023-08-25T06:20:58.266Z,21.10
2023-08-25T06:23:25.111Z,21.10
2023-08-25T06:25:52.039Z,21.10
2023-08-25T06:28:18.922Z,21.10
2023-08-25T06:30:53.017Z,21.20
2023-08-25T06:33:20.182Z,21.20
2023-08-25T06:35:47.208Z,21.20
2023-08-25T06:38:14.154Z,21.20
2023-08-25T06:40:41.175Z,21.20
2023-08-25T06:43:08.068Z,21.20
2023-08-25T06:45:35.450Z,21.20
2023-08-25T06:48:02.465Z,21.20
2023-08-25T06:50:29.397Z,21.20
2023-08-25T06:52:56.229Z,21.20
2023-08-25T06:55:25.042Z,21.20
2023-08-25T06:57:52.372Z,21.20
2023-08-25T07:00:20.058Z,21.40
2023-08-25T07:02:47.419Z,21.60
2023-08-25T07:05:14.631Z,21.70
2023-08-25T07:07:43.361Z,21.80
2023-08-25T07:10:16.928Z,21.70
2023-08-25T07:12:44.078Z,21.80
2023-08-25T07:15:11.715Z,22.00
2023-08-25T07:17:38.780Z,21.90
2023-08-25T07:20:06.537Z,22.00
2023-08-25T07:22:33.596Z,22.10
2023-08-25T07:25:00.586Z,22.20
2023-08-25T07:27:27.700Z,22.20
2023-08-25T07:29:54.762Z,22.20
2023-08-25T07:32:23.337Z,22.10
2023-08-25T07:34:51.703Z,22.10
2023-08-25T07:37:18.699Z,22.20
2023-08-25T07:39:54.770Z,22.10
2023-08-25T07:42:22.427Z,22.20
2023-08-25T07:44:50.312Z,22.10
2023-08-25T07:47:17.301Z,22.10
2023-08-25T07:49:44.239Z,22.10
2023-08-25T07:52:11.458Z,22.00
2023-08-25T07:54:39.202Z,22.00
2023-08-25T07:57:06.468Z,22.10
2023-08-25T07:59:33.558Z,22.10
2023-08-25T08:02:00.486Z,22.00
2023-08-25T08:04:28.039Z,22.30
2023-08-25T08:06:56.254Z,22.60
2023-08-25T08:09:23.159Z,22.60
2023-08-25T08:11:50.130Z,22.80
2023-08-25T08:14:17.153Z,22.90
2023-08-25T08:16:44.358Z,23.10
2023-08-25T08:19:11.774Z,23.00
2023-08-25T08:21:38.688Z,23.10
2023-08-25T08:24:06.001Z,23.20
2023-08-25T08:26:33.205Z,23.20
2023-08-25T08:29:00.178Z,23.20
2023-08-25T08:31:27.906Z,23.10
2023-08-25T08:33:54.842Z,22.90
2023-08-25T08:36:21.728Z,22.70
2023-08-25T08:38:48.633Z,22.50
2023-08-25T08:41:17.942Z,22.40
2023-08-25T08:43:47.067Z,22.40
2023-08-25T08:46:18.561Z,22.30
2023-08-25T08:48:47.580Z,22.30
2023-08-25T08:51:18.913Z,22.30
2023-08-25T08:53:48.932Z,22.20
2023-08-25T08:56:17.600Z,22.20
2023-08-25T08:58:44.573Z,22.20
2023-08-25T09:01:11.833Z,22.20
2023-08-25T09:03:40.702Z,22.30
2023-08-25T09:06:07.798Z,22.40
2023-08-25T09:08:38.025Z,22.30
2023-08-25T09:11:06.492Z,22.30
2023-08-25T09:13:35.144Z,22.40
2023-08-25T09:16:15.825Z,22.40
2023-08-25T09:18:43.009Z,22.40
2023-08-25T09:21:26.757Z,22.40
2023-08-25T09:23:57.303Z,22.50
2023-08-25T09:26:25.247Z,22.60
2023-08-25T09:28:59.101Z,22.50
2023-08-25T09:31:28.704Z,22.60
2023-08-25T09:34:05.006Z,22.50
2023-08-25T09:36:32.895Z,22.50
2023-08-25T09:39:07.318Z,22.50
2023-08-25T09:41:35.300Z,22.50
2023-08-25T09:44:04.083Z,22.50
2023-08-25T09:46:33.934Z,22.50
2023-08-25T09:49:09.022Z,22.40
2023-08-25T09:51:48.383Z,22.40
2023-08-25T09:54:20.297Z,22.30
2023-08-25T09:56:48.438Z,22.40
2023-08-25T09:59:16.404Z,22.40
2023-08-25T10:01:46.684Z,22.40
2023-08-25T10:04:14.526Z,22.40
2023-08-25T10:06:42.346Z,22.50
2023-08-25T10:09:10.141Z,22.60
2023-08-25T10:11:44.584Z,22.50
2023-08-25T10:14:13.990Z,22.60
2023-08-25T10:16:52.971Z,22.70
2023-08-25T10:19:31.401Z,22.80
2023-08-25T10:22:02.889Z,22.80
2023-08-25T10:24:35.693Z,22.90
2023-08-25T10:27:03.459Z,23.10
2023-08-25T10:29:33.479Z,23.10
2023-08-25T10:32:04.114Z,23.10
2023-08-25T10:34:37.889Z,23.20
2023-08-25T10:37:11.251Z,23.30
2023-08-25T10:39:54.009Z,23.20
2023-08-25T10:42:31.506Z,23.00
2023-08-25T10:45:05.544Z,22.90
2023-08-25T10:47:32.662Z,23.00
2023-08-25T10:50:05.120Z,23.00
2023-08-25T10:52:34.005Z,23.00
2023-08-25T10:55:30.176Z,23.20
2023-08-25T10:58:06.266Z,23.10
2023-08-25T11:00:37.910Z,23.10
2023-08-25T11:03:06.128Z,23.00
2023-08-25T11:05:35.902Z,23.00
2023-08-25T11:08:05.108Z,23.00
2023-08-25T11:10:35.460Z,23.00
2023-08-25T11:13:10.925Z,23.10
2023-08-25T11:15:41.544Z,23.00
2023-08-25T11:18:09.821Z,23.00
2023-08-25T11:20:45.946Z,22.90
2023-08-25T11:23:20.878Z,22.90
2023-08-25T11:25:48.381Z,23.00
2023-08-25T11:28:15.356Z,23.10
2023-08-25T11:30:42.452Z,23.10
2023-08-25T11:33:10.241Z,23.20
2023-08-25T11:35:37.395Z,23.20
2023-08-25T11:38:04.549Z,23.20
2023-08-25T11:40:31.601Z,23.10
2023-08-25T11:42:58.689Z,23.10
2023-08-25T11:45:32.420Z,23.10
2023-08-25T11:47:59.778Z,23.20
2023-08-25T11:50:27.389Z,23.30
2023-08-25T11:52:59.778Z,23.20
2023-08-25T11:55:34.393Z,23.20
2023-08-25T11:58:08.806Z,23.10
2023-08-25T12:00:39.754Z,23.10
2023-08-25T12:03:14.264Z,23.00
2023-08-25T12:05:41.324Z,23.20
2023-08-25T12:08:08.401Z,23.30
2023-08-25T12:10:36.681Z,23.70
2023-08-25T12:13:03.934Z,24.00
2023-08-25T12:15:46.496Z,24.20
2023-08-25T12:18:14.302Z,24.20
2023-08-25T12:20:45.900Z,24.30
2023-08-25T12:23:12.926Z,24.20
2023-08-25T12:25:43.472Z,24.20
2023-08-25T12:28:12.074Z,23.90
2023-08-25T12:30:39.266Z,23.90
2023-08-25T12:33:07.236Z,23.80
2023-08-25T12:35:35.144Z,23.90
2023-08-25T12:38:02.172Z,23.80
2023-08-25T12:40:29.497Z,23.80
2023-08-25T12:42:56.866Z,23.70
2023-08-25T12:45:25.043Z,23.50
2023-08-25T12:47:53.544Z,23.40
2023-08-25T12:50:20.948Z,23.30
2023-08-25T12:52:47.887Z,23.10
2023-08-25T12:55:21.252Z,23.10
2023-08-25T12:57:54.120Z,23.00
2023-08-25T13:00:21.800Z,23.00
2023-08-25T13:02:51.306Z,22.90
2023-08-25T13:05:20.371Z,22.90
2023-08-25T13:07:47.444Z,22.90
2023-08-25T13:10:14.319Z,22.80
2023-08-25T13:12:41.226Z,22.70
2023-08-25T13:15:09.201Z,22.80
2023-08-25T13:17:36.159Z,22.80
2023-08-25T13:20:04.200Z,22.80
2023-08-25T13:22:31.212Z,23.00
2023-08-25T13:24:58.279Z,23.00
2023-08-25T13:27:25.271Z,23.10
2023-08-25T13:29:52.166Z,23.20
2023-08-25T13:32:19.231Z,23.20
2023-08-25T13:34:46.193Z,23.10
2023-08-25T13:37:13.369Z,23.00
2023-08-25T13:39:42.131Z,23.00
2023-08-25T13:42:09.596Z,22.90
2023-08-25T13:44:39.893Z,22.90
2023-08-25T13:47:10.625Z,22.90
2023-08-25T13:49:39.843Z,22.90
2023-08-25T13:52:07.048Z,22.80
2023-08-25T13:54:34.530Z,22.90
2023-08-25T13:57:02.192Z,23.00
2023-08-25T13:59:29.697Z,23.00
2023-08-25T14:01:56.710Z,23.20
2023-08-25T14:04:23.913Z,23.30
2023-08-25T14:06:50.918Z,23.30
2023-08-25T14:09:18.202Z,23.20
2023-08-25T14:11:45.069Z,23.10
2023-08-25T14:14:12.729Z,23.00
2023-08-25T14:16:40.351Z,23.00
2023-08-25T14:19:08.086Z,22.90
2023-08-25T14:21:35.253Z,22.90
2023-08-25T14:24:02.314Z,22.90
2023-08-25T14:26:29.344Z,22.90
2023-08-25T14:28:56.373Z,22.80
2023-08-25T14:31:23.313Z,22.70
2023-08-25T14:33:50.278Z,22.60
2023-08-25T14:36:17.199Z,22.70
2023-08-25T14:38:44.453Z,22.70
2023-08-25T14:41:12.125Z,22.90
2023-08-25T14:43:39.245Z,23.00
2023-08-25T14:46:06.212Z,23.20
2023-08-25T14:48:33.233Z,22.90
2023-08-25T14:51:03.262Z,23.10
2023-08-25T14:53:30.408Z,23.00
2023-08-25T14:55:57.876Z,22.90
2023-08-25T14:58:25.086Z,22.90
2023-08-25T15:00:56.252Z,22.90
2023-08-25T15:03:24.990Z,23.10
2023-08-25T15:06:00.437Z,22.90
2023-08-25T15:08:29.576Z,22.90
2023-08-25T15:10:57.708Z,22.90
2023-08-25T15:13:26.052Z,23.00
2023-08-25T15:15:53.528Z,23.00
2023-08-25T15:18:20.929Z,23.20
2023-08-25T15:21:04.350Z,23.30
2023-08-25T15:23:32.646Z,23.30
2023-08-25T15:26:00.550Z,23.30
2023-08-25T15:28:30.446Z,23.40
2023-08-25T15:31:10.405Z,23.30
2023-08-25T15:33:41.678Z,23.40
2023-08-25T15:36:10.550Z,23.30
2023-08-25T15:38:37.672Z,23.30
2023-08-25T15:41:08.524Z,23.40
2023-08-25T15:43:36.754Z,23.20
2023-08-25T15:46:04.356Z,23.40
2023-08-25T15:48:31.458Z,23.50
2023-08-25T15:50:58.518Z,23.60
2023-08-25T15:53:29.108Z,23.60
2023-08-25T15:55:56.148Z,23.70
2023-08-25T15:58:23.437Z,23.70
2023-08-25T16:00:57.028Z,23.90
2023-08-25T16:03:24.193Z,23.80
2023-08-25T16:05:59.863Z,23.60
2023-08-25T16:08:28.259Z,23.80
2023-08-25T16:11:05.746Z,23.60
2023-08-25T16:13:35.509Z,23.80
2023-08-25T16:16:04.419Z,23.60
2023-08-25T16:18:32.777Z,23.80
2023-08-25T16:21:05.521Z,23.70
2023-08-25T16:23:36.165Z,23.60
2023-08-25T16:26:04.352Z,23.60
2023-08-25T16:28:33.116Z,23.40
2023-08-25T16:31:05.377Z,23.30
2023-08-25T16:33:35.152Z,23.30
2023-08-25T16:36:04.527Z,23.30
2023-08-25T16:38:33.418Z,23.20
2023-08-25T16:41:00.303Z,23.30
2023-08-25T16:43:27.232Z,23.30
2023-08-25T16:45:54.166Z,23.30
2023-08-25T16:48:23.790Z,23.20
2023-08-25T16:50:51.935Z,23.40
2023-08-25T16:53:20.674Z,23.60
2023-08-25T16:55:47.604Z,23.30
2023-08-25T16:58:15.152Z,23.40
2023-08-25T17:00:43.101Z,23.20
2023-08-25T17:03:10.459Z,23.20
2023-08-25T17:05:37.436Z,23.10
2023-08-25T17:08:05.882Z,23.20
2023-08-25T17:10:33.636Z,23.10
2023-08-25T17:13:00.630Z,23.00
2023-08-25T17:15:37.360Z,22.80
2023-08-25T17:18:05.470Z,22.90
2023-08-25T17:20:32.585Z,22.90
2023-08-25T17:22:59.817Z,22.70
2023-08-25T17:25:26.813Z,22.90
2023-08-25T17:27:54.811Z,22.70
2023-08-25T17:30:22.171Z,22.70
2023-08-25T17:32:49.075Z,22.60
2023-08-25T17:35:16.363Z,22.80
2023-08-25T17:37:43.299Z,22.50
2023-08-25T17:40:10.922Z,22.70
2023-08-25T17:42:37.857Z,22.90
2023-08-25T17:45:05.585Z,22.70
2023-08-25T17:47:32.608Z,22.50
2023-08-25T17:50:02.958Z,22.70
2023-08-25T17:52:30.053Z,22.80
2023-08-25T17:54:56.981Z,22.60
2023-08-25T17:57:23.910Z,22.60
2023-08-25T17:59:51.215Z,22.40
2023-08-25T18:02:18.333Z,22.20
2023-08-25T18:04:45.257Z,22.20
2023-08-25T18:07:13.045Z,22.10
2023-08-25T18:09:41.703Z,22.10
2023-08-25T18:12:09.769Z,21.90
2023-08-25T18:14:36.757Z,22.10
2023-08-25T18:17:04.477Z,21.80
2023-08-25T18:19:31.797Z,22.00
2023-08-25T18:21:58.734Z,21.90
2023-08-25T18:24:25.660Z,22.00
2023-08-25T18:26:52.780Z,22.00
2023-08-25T18:29:19.689Z,21.90
2023-08-25T18:31:46.602Z,21.80
2023-08-25T18:34:14.477Z,21.50
2023-08-25T18:36:41.505Z,21.60
2023-08-25T18:39:08.426Z,21.70
2023-08-25T18:41:35.456Z,21.70
2023-08-25T18:44:02.645Z,21.60
2023-08-25T18:46:29.638Z,21.80
2023-08-25T18:48:56.646Z,21.40
2023-08-25T18:51:25.902Z,21.40
2023-08-25T18:53:54.017Z,21.60
2023-08-25T18:56:22.168Z,21.70
2023-08-25T18:58:49.502Z,21.70
2023-08-25T19:01:17.236Z,21.70
2023-08-25T19:03:46.557Z,21.80
2023-08-25T19:06:13.929Z,21.80
2023-08-25T19:08:40.948Z,21.60
2023-08-25T19:11:10.399Z,21.60
2023-08-25T19:13:37.363Z,21.80
2023-08-25T19:16:05.661Z,21.90
2023-08-25T19:18:32.621Z,21.50
2023-08-25T19:21:03.843Z,21.50
2023-08-25T19:23:34.151Z,21.40
2023-08-25T19:26:11.267Z,21.60
2023-08-25T19:28:42.603Z,21.10
2023-08-25T19:31:12.740Z,20.80
2023-08-25T19:33:39.786Z,21.00
2023-08-25T19:36:06.947Z,20.70
2023-08-25T19:38:33.780Z,20.60
2023-08-25T19:41:08.409Z,20.80
2023-08-25T19:43:37.603Z,20.70
2023-08-25T19:46:04.765Z,20.40
2023-08-25T19:48:33.564Z,20.30
2023-08-25T19:51:00.523Z,20.30
2023-08-25T19:53:27.404Z,20.90
2023-08-25T19:55:54.383Z,20.50
2023-08-25T19:58:22.311Z,20.30
2023-08-25T20:00:49.418Z,20.10
2023-08-25T20:03:18.418Z,20.10
2023-08-25T20:06:07.335Z,20.10
2023-08-25T20:08:37.845Z,20.10
2023-08-25T20:11:09.815Z,20.10
2023-08-25T20:13:39.974Z,20.00
2023-08-25T20:16:07.070Z,20.00
2023-08-25T20:18:34.414Z,20.00
2023-08-25T20:21:01.568Z,20.00
2023-08-25T20:23:28.778Z,20.00
2023-08-25T20:25:56.677Z,19.90
2023-08-25T20:28:23.867Z,19.80
2023-08-25T20:30:51.408Z,19.80
2023-08-25T20:33:18.845Z,19.80
2023-08-25T20:35:46.914Z,19.70
2023-08-25T20:38:15.401Z,19.70
2023-08-25T20:40:44.418Z,19.80
2023-08-25T20:43:14.266Z,19.70
2023-08-25T20:45:48.472Z,19.70
2023-08-25T20:48:16.947Z,19.70
2023-08-25T20:50:49.954Z,19.70
2023-08-25T20:53:16.924Z,19.80
2023-08-25T20:55:43.773Z,19.80
2023-08-25T20:58:10.687Z,19.90
2023-08-25T21:00:37.577Z,20.00
2023-08-25T21:03:04.870Z,19.90
2023-08-25T21:05:31.734Z,19.80
2023-08-25T21:07:58.633Z,19.90
2023-08-25T21:10:25.606Z,19.80
2023-08-25T21:12:52.530Z,19.80
2023-08-25T21:15:19.362Z,19.80
2023-08-25T21:17:46.252Z,19.80
2023-08-25T21:20:13.291Z,19.60
2023-08-25T21:22:40.208Z,19.70
2023-08-25T21:25:09.353Z,19.60
2023-08-25T21:27:36.258Z,19.40
2023-08-25T21:30:03.811Z,19.40
2023-08-25T21:32:30.777Z,19.30
2023-08-25T21:34:57.641Z,19.20
2023-08-25T21:37:24.572Z,19.10
2023-08-25T21:39:53.590Z,19.10
2023-08-25T21:42:20.450Z,18.90
2023-08-25T21:44:47.416Z,18.90
2023-08-25T21:47:15.779Z,19.00
2023-08-25T21:49:42.632Z,19.00
2023-08-25T21:52:09.501Z,19.00
2023-08-25T21:54:36.424Z,18.80
2023-08-25T21:57:03.487Z,18.70
2023-08-25T21:59:30.355Z,18.60
2023-08-25T22:01:57.253Z,18.60
2023-08-25T22:04:24.269Z,18.60
2023-08-25T22:06:51.415Z,18.60
2023-08-25T22:09:18.286Z,18.50
2023-08-25T22:11:45.315Z,18.50
2023-08-25T22:14:12.625Z,18.50
2023-08-25T22:16:40.231Z,18.50
2023-08-25T22:19:07.453Z,18.40
2023-08-25T22:21:34.746Z,18.40
2023-08-25T22:24:01.690Z,18.40
2023-08-25T22:26:28.558Z,18.50
2023-08-25T22:28:55.445Z,18.40
2023-08-25T22:31:22.628Z,18.40
2023-08-25T22:36:19.282Z,18.40
2023-08-25T22:38:46.251Z,18.40
2023-08-25T22:41:13.078Z,18.40
2023-08-25T22:43:39.891Z,18.30
2023-08-25T22:46:07.533Z,18.30
2023-08-25T22:48:34.488Z,18.30
2023-08-25T22:51:01.541Z,18.30
2023-08-25T22:53:28.537Z,18.40
2023-08-25T22:55:56.330Z,18.30
2023-08-25T22:58:24.056Z,18.30
2023-08-25T23:00:51.131Z,18.20
2023-08-25T23:03:18.358Z,18.20
2023-08-25T23:05:45.445Z,18.20
2023-08-25T23:08:12.495Z,18.10
2023-08-25T23:10:41.630Z,18.10
2023-08-25T23:13:09.209Z,18.00
2023-08-25T23:15:37.249Z,17.90
2023-08-25T23:18:05.103Z,17.90
2023-08-25T23:20:35.386Z,17.90
2023-08-25T23:23:02.340Z,17.80
2023-08-25T23:25:29.523Z,17.60
2023-08-25T23:27:56.562Z,17.70
2023-08-25T23:30:24.091Z,17.60
2023-08-25T23:32:51.053Z,17.60
2023-08-25T23:35:18.039Z,17.50
2023-08-25T23:37:44.991Z,17.50
2023-08-25T23:40:12.412Z,17.40
2023-08-25T23:42:39.271Z,17.40
2023-08-25T23:45:07.060Z,17.40
2023-08-25T23:47:34.091Z,17.40
2023-08-25T23:50:01.486Z,17.40
2023-08-25T23:52:28.454Z,17.40
2023-08-25T23:54:57.866Z,17.40
2023-08-25T23:57:25.265Z,17.40
2023-08-25T23:59:52.992Z,17.40
